createdAt,value
2022-10-13T00:00:49.831Z,99945.97
2022-10-13T00:03:52.566Z,99944.25
2022-10-13T00:06:57.553Z,99939.06
2022-10-13T00:10:00.970Z,99951.84
2022-10-13T00:13:02.876Z,99945.63
2022-10-13T00:16:05.061Z,99940.00
2022-10-13T00:19:06.793Z,99947.72
2022-10-13T00:22:08.620Z,99944.31
2022-10-13T00:25:10.424Z,99942.50
2022-10-13T00:28:13.147Z,99940.78
2022-10-13T00:31:26.265Z,99948.34
2022-10-13T00:34:28.007Z,99940.91
2022-10-13T00:37:29.825Z,99937.00
2022-10-13T00:40:31.601Z,99953.84
2022-10-13T00:43:53.766Z,99948.50
2022-10-13T00:46:55.635Z,99950.59
2022-10-13T00:49:57.998Z,99950.72
2022-10-13T00:53:01.304Z,99939.56
2022-10-13T00:56:04.010Z,99942.63
2022-10-13T00:59:15.046Z,99939.44
2022-10-13T01:02:17.662Z,99940.66
2022-10-13T01:05:21.160Z,99942.31
2022-10-13T01:08:23.283Z,99944.72
2022-10-13T01:11:43.179Z,99938.13
2022-10-13T01:14:54.000Z,99943.03
2022-10-13T01:18:25.247Z,99948.94
2022-10-13T01:21:51.708Z,99947.13
2022-10-13T01:25:35.293Z,99960.59
2022-10-13T01:28:46.028Z,99949.91
2022-10-13T01:32:05.542Z,99947.25
2022-10-13T01:35:18.220Z,99950.19
2022-10-13T01:38:26.672Z,99946.81
2022-10-13T01:41:40.666Z,99945.38
2022-10-13T01:44:50.373Z,99938.34
2022-10-13T01:47:52.875Z,99946.22
2022-10-13T01:50:56.687Z,99946.38
2022-10-13T01:53:58.681Z,99942.00
2022-10-13T01:57:00.489Z,99941.81
2022-10-13T02:00:16.021Z,99940.91
2022-10-13T02:03:26.538Z,99946.13
2022-10-13T02:06:38.018Z,99950.88
2022-10-13T02:10:07.180Z,99950.75
2022-10-13T02:13:12.680Z,99956.59
2022-10-13T02:16:16.002Z,99945.34
2022-10-13T02:19:19.225Z,99952.50
2022-10-13T02:22:24.541Z,99957.00
2022-10-13T02:25:28.915Z,99959.84
2022-10-13T02:28:33.385Z,99961.16
2022-10-13T02:31:35.459Z,99962.75
2022-10-13T02:34:37.200Z,99955.94
2022-10-13T02:37:38.971Z,99959.97
2022-10-13T02:40:40.747Z,99961.03
2022-10-13T02:43:42.518Z,99960.69
2022-10-13T02:46:44.228Z,99952.81
2022-10-13T02:49:46.071Z,99964.19
2022-10-13T02:52:47.853Z,99961.44
2022-10-13T02:55:49.640Z,99968.47
2022-10-13T02:58:51.884Z,99960.47
2022-10-13T03:01:53.669Z,99971.00
2022-10-13T03:04:56.807Z,99966.66
2022-10-13T03:07:58.732Z,99966.78
2022-10-13T03:11:00.787Z,99972.63
2022-10-13T03:14:03.019Z,99972.53
2022-10-13T03:17:04.780Z,99982.94
2022-10-13T03:20:07.375Z,99976.50
2022-10-13T03:23:09.123Z,99981.25
2022-10-13T03:26:10.881Z,99980.16
2022-10-13T03:29:17.013Z,99977.75
2022-10-13T03:32:19.244Z,99984.16
2022-10-13T03:35:22.284Z,99988.78
2022-10-13T03:38:24.052Z,99986.22
2022-10-13T03:41:25.869Z,99982.25
2022-10-13T03:44:27.682Z,99994.72
2022-10-13T03:47:29.684Z,99982.75
2022-10-13T03:50:31.444Z,99993.16
2022-10-13T03:53:33.980Z,100000.19
2022-10-13T03:56:36.409Z,99994.59
2022-10-13T03:59:40.589Z,99992.06
2022-10-13T04:02:42.889Z,99991.47
2022-10-13T04:05:44.771Z,99998.22
2022-10-13T04:08:46.690Z,99997.00
2022-10-13T04:11:51.387Z,100007.53
2022-10-13T04:14:53.155Z,99999.16
2022-10-13T04:17:54.977Z,100004.63
2022-10-13T04:20:56.716Z,100009.56
2022-10-13T04:23:59.314Z,100005.09
2022-10-13T04:27:01.094Z,100006.91
2022-10-13T04:30:03.138Z,100013.56
2022-10-13T04:33:06.177Z,100007.13
2022-10-13T04:36:10.604Z,100015.47
2022-10-13T04:39:12.312Z,100014.22
2022-10-13T04:42:14.108Z,100015.41
2022-10-13T04:45:16.114Z,100010.44
2022-10-13T04:48:21.184Z,100009.66
2022-10-13T04:51:25.279Z,100009.84
2022-10-13T04:54:27.095Z,100009.09
2022-10-13T04:57:28.898Z,100024.91
2022-10-13T05:00:30.704Z,100020.59
2022-10-13T05:03:33.605Z,100018.97
2022-10-13T05:06:48.629Z,100025.47
2022-10-13T05:09:58.649Z,100021.03
2022-10-13T05:13:00.397Z,100027.41
2022-10-13T05:16:15.758Z,100029.28
2022-10-13T05:19:17.602Z,100033.22
2022-10-13T05:22:19.969Z,100039.34
2022-10-13T05:25:22.466Z,100042.75
2022-10-13T05:28:24.401Z,100042.34
2022-10-13T05:31:27.708Z,100040.75
2022-10-13T05:34:30.918Z,100044.47
2022-10-13T05:37:32.743Z,100044.50
2022-10-13T05:40:34.469Z,100044.25
2022-10-13T05:43:41.193Z,100042.00
2022-10-13T05:46:43.650Z,100055.50
2022-10-13T05:49:45.443Z,100053.63
2022-10-13T05:52:47.300Z,100058.00
2022-10-13T05:55:50.515Z,100063.03
2022-10-13T05:58:58.012Z,100059.19
2022-10-13T06:02:02.365Z,100054.91
2022-10-13T06:05:08.650Z,100056.03
2022-10-13T06:08:10.859Z,100051.47
2022-10-13T06:11:12.611Z,100058.94
2022-10-13T06:14:14.346Z,100051.63
2022-10-13T06:17:16.103Z,100058.56
2022-10-13T06:20:18.085Z,100060.09
2022-10-13T06:23:19.953Z,100063.09
2022-10-13T06:26:21.822Z,100067.22
2022-10-13T06:29:23.791Z,100059.84
2022-10-13T06:32:25.714Z,100067.38
2022-10-13T06:35:27.594Z,100064.47
2022-10-13T06:38:29.643Z,100076.03
2022-10-13T06:41:31.445Z,100067.06
2022-10-13T06:44:33.368Z,100066.53
2022-10-13T06:47:38.187Z,100064.03
2022-10-13T06:50:42.913Z,100065.66
2022-10-13T06:53:44.913Z,100068.13
2022-10-13T06:56:46.775Z,100059.94
2022-10-13T06:59:48.668Z,100061.44
2022-10-13T07:02:52.486Z,100066.25
2022-10-13T07:05:54.581Z,100071.16
2022-10-13T07:08:56.336Z,100068.28
2022-10-13T07:11:58.117Z,100069.59
2022-10-13T07:14:59.913Z,100066.84
2022-10-13T07:18:01.660Z,100057.25
2022-10-13T07:21:06.675Z,100060.28
2022-10-13T07:24:11.366Z,100056.47
2022-10-13T07:27:13.213Z,100061.13
2022-10-13T07:30:14.947Z,100065.00
2022-10-13T07:33:16.768Z,100065.47
2022-10-13T07:36:19.302Z,100059.72
2022-10-13T07:39:22.491Z,100058.50
2022-10-13T07:42:24.142Z,100057.34
2022-10-13T07:45:27.243Z,100056.25
2022-10-13T07:48:29.118Z,100050.03
2022-10-13T07:51:34.286Z,100050.50
2022-10-13T07:54:36.091Z,100046.63
2022-10-13T07:57:38.185Z,100043.59
2022-10-13T08:00:39.998Z,100051.38
2022-10-13T08:03:45.597Z,100040.59
2022-10-13T08:06:53.683Z,100040.59
2022-10-13T08:09:56.119Z,100039.41
2022-10-13T08:12:57.983Z,100032.53
2022-10-13T08:16:01.208Z,100033.44
2022-10-13T08:19:03.278Z,100043.44
2022-10-13T08:22:09.216Z,100041.94
2022-10-13T08:25:12.097Z,100041.94
2022-10-13T08:28:23.167Z,100045.19
2022-10-13T08:31:25.233Z,100043.28
2022-10-13T08:34:27.307Z,100039.03
2022-10-13T08:37:29.246Z,100039.56
2022-10-13T08:40:31.258Z,100042.72
2022-10-13T08:43:33.104Z,100048.75
2022-10-13T08:46:47.403Z,100040.75
2022-10-13T08:49:49.921Z,100040.88
2022-10-13T08:53:34.578Z,100037.28
2022-10-13T08:56:37.065Z,100034.94
2022-10-13T08:59:38.848Z,100036.03
2022-10-13T09:02:43.746Z,100044.88
2022-10-13T09:06:11.329Z,100042.72
2022-10-13T09:09:15.591Z,100036.91
2022-10-13T09:12:24.999Z,100038.88
2022-10-13T09:15:26.782Z,100035.22
2022-10-13T09:18:31.791Z,100032.16
2022-10-13T09:21:33.780Z,100037.72
2022-10-13T09:24:35.564Z,100032.19
2022-10-13T09:27:54.713Z,100038.28
2022-10-13T09:31:18.949Z,100034.81
2022-10-13T09:34:20.850Z,100029.28
2022-10-13T09:37:24.905Z,100031.66
2022-10-13T09:40:30.981Z,100033.88
2022-10-13T09:43:35.761Z,100032.00
2022-10-13T09:46:51.611Z,100031.34
2022-10-13T09:50:14.262Z,100027.63
2022-10-13T09:53:34.809Z,100022.06
2022-10-13T09:56:43.518Z,100018.53
2022-10-13T10:00:06.292Z,100029.94
2022-10-13T10:03:21.133Z,100018.13
2022-10-13T10:06:26.874Z,100020.50
2022-10-13T10:09:38.800Z,100022.88
2022-10-13T10:12:43.779Z,100023.72
2022-10-13T10:15:56.625Z,100017.78
2022-10-13T10:19:17.911Z,100015.84
2022-10-13T10:22:30.051Z,100013.91
2022-10-13T10:26:01.588Z,100015.59
2022-10-13T10:29:29.446Z,100010.34
2022-10-13T10:32:46.485Z,100003.38
2022-10-13T10:35:58.705Z,99999.75
2022-10-13T10:39:21.735Z,100005.59
2022-10-13T10:42:48.448Z,100002.75
2022-10-13T10:45:57.608Z,100011.94
2022-10-13T10:49:03.959Z,100011.03
2022-10-13T10:52:11.287Z,100000.00
2022-10-13T10:55:38.588Z,100004.91
2022-10-13T10:58:53.524Z,100006.94
2022-10-13T11:02:08.898Z,100006.47
2022-10-13T11:05:11.173Z,100005.38
2022-10-13T11:08:30.009Z,99998.25
2022-10-13T11:11:40.394Z,99987.50
2022-10-13T11:15:08.794Z,99995.44
2022-10-13T11:18:48.245Z,99990.09
2022-10-13T11:21:53.163Z,99998.66
2022-10-13T11:24:57.649Z,99992.53
2022-10-13T11:28:00.139Z,99989.66
2022-10-13T11:31:13.891Z,99997.09
2022-10-13T11:34:31.423Z,99995.06
2022-10-13T11:38:07.703Z,99994.22
2022-10-13T11:41:18.763Z,99994.59
2022-10-13T11:44:37.066Z,99988.94
2022-10-13T11:48:21.401Z,99985.22
2022-10-13T11:51:32.077Z,99989.06
2022-10-13T11:54:48.655Z,99988.72
2022-10-13T11:57:50.391Z,99995.19
2022-10-13T12:00:58.005Z,99992.47
2022-10-13T12:04:13.799Z,99985.81
2022-10-13T12:07:17.228Z,99982.59
2022-10-13T12:10:35.917Z,99982.81
2022-10-13T12:13:37.841Z,99986.25
2022-10-13T12:16:53.565Z,99987.56
2022-10-13T12:19:57.740Z,99984.38
2022-10-13T12:23:00.767Z,99986.28
2022-10-13T12:26:04.148Z,99990.84
2022-10-13T12:29:12.333Z,99983.09
2022-10-13T12:32:23.771Z,99978.00
2022-10-13T12:35:34.801Z,99980.41
2022-10-13T12:38:37.291Z,99975.00
2022-10-13T12:41:44.323Z,99973.03
2022-10-13T12:44:46.576Z,99979.19
2022-10-13T12:47:51.130Z,99986.97
2022-10-13T12:50:53.167Z,99986.13
2022-10-13T12:53:55.511Z,99986.16
2022-10-13T12:57:00.607Z,99974.03
2022-10-13T13:00:06.031Z,99987.53
2022-10-13T13:03:23.257Z,99985.84
2022-10-13T13:06:37.062Z,99987.69
2022-10-13T13:09:41.066Z,99984.31
2022-10-13T13:12:44.324Z,99983.63
2022-10-13T13:15:49.014Z,99986.81
2022-10-13T13:18:51.235Z,99976.72
2022-10-13T13:21:54.138Z,99980.41
2022-10-13T13:24:56.003Z,99984.44
2022-10-13T13:27:57.957Z,99980.72
2022-10-13T13:30:59.794Z,99980.13
2022-10-13T13:34:01.753Z,99975.72
2022-10-13T13:37:03.637Z,99973.03
2022-10-13T13:40:07.017Z,99982.84
2022-10-13T13:43:09.261Z,99980.69
2022-10-13T13:46:21.253Z,99982.41
2022-10-13T13:49:23.095Z,99985.63
2022-10-13T13:52:25.722Z,99985.81
2022-10-13T13:55:28.131Z,99981.31
2022-10-13T13:58:30.003Z,99981.16
2022-10-13T14:01:32.467Z,99988.22
2022-10-13T14:04:34.622Z,99984.19
2022-10-13T14:07:36.546Z,99988.91
2022-10-13T14:10:40.744Z,99993.78
2022-10-13T14:13:43.028Z,99989.75
2022-10-13T14:16:46.267Z,99989.59
2022-10-13T14:19:48.093Z,99986.56
2022-10-13T14:22:50.062Z,99983.50
2022-10-13T14:25:52.188Z,99984.34
2022-10-13T14:28:56.508Z,99989.19
2022-10-13T14:31:58.896Z,99990.53
2022-10-13T14:35:00.927Z,99986.97
2022-10-13T14:38:02.789Z,99984.28
2022-10-13T14:41:05.718Z,99995.19
2022-10-13T14:44:12.401Z,99993.31
2022-10-13T14:47:16.866Z,99992.41
2022-10-13T14:50:18.624Z,99995.06
2022-10-13T14:53:24.602Z,99996.38
2022-10-13T14:56:30.084Z,100006.41
2022-10-13T14:59:32.914Z,99999.66
2022-10-13T15:02:34.749Z,100003.69
2022-10-13T15:05:38.051Z,100008.91
2022-10-13T15:08:40.447Z,100008.06
2022-10-13T15:11:42.443Z,100006.22
2022-10-13T15:14:44.151Z,100009.59
2022-10-13T15:17:46.155Z,100004.72
2022-10-13T15:20:48.523Z,100009.91
2022-10-13T15:23:51.409Z,100008.91
2022-10-13T15:26:53.347Z,100011.09
2022-10-13T15:29:55.203Z,100017.31
2022-10-13T15:32:57.038Z,100010.25
2022-10-13T15:35:59.183Z,100016.63
2022-10-13T15:39:01.023Z,100015.09
2022-10-13T15:42:04.196Z,100004.34
2022-10-13T15:45:11.081Z,100011.56
2022-10-13T15:48:14.512Z,100006.50
2022-10-13T15:51:17.116Z,100010.84
2022-10-13T15:54:20.994Z,100009.84
2022-10-13T15:57:22.817Z,100019.56
2022-10-13T16:00:24.848Z,100011.69
2022-10-13T16:03:35.144Z,100026.28
2022-10-13T16:06:43.697Z,100011.16
2022-10-13T16:09:45.618Z,100018.53
2022-10-13T16:12:49.729Z,100018.69
2022-10-13T16:16:01.302Z,100029.59
2022-10-13T16:19:10.918Z,100024.81
2022-10-13T16:22:15.937Z,100025.13
2022-10-13T16:25:19.003Z,100023.75
2022-10-13T16:28:21.829Z,100031.59
2022-10-13T16:31:24.260Z,100034.91
2022-10-13T16:34:26.896Z,100030.84
2022-10-13T16:37:28.721Z,100032.47
2022-10-13T16:40:31.153Z,100030.25
2022-10-13T16:43:33.601Z,100036.25
2022-10-13T16:46:35.448Z,100039.53
2022-10-13T16:49:37.339Z,100035.34
2022-10-13T16:52:39.900Z,100034.94
2022-10-13T16:55:42.381Z,100032.41
2022-10-13T16:58:45.338Z,100031.03
2022-10-13T17:01:48.253Z,100029.66
2022-10-13T17:04:49.942Z,100032.97
2022-10-13T17:07:52.078Z,100030.28
2022-10-13T17:10:58.092Z,100028.59
2022-10-13T17:14:01.206Z,100028.75
2022-10-13T17:17:05.005Z,100035.56
2022-10-13T17:20:07.123Z,100037.00
2022-10-13T17:23:09.146Z,100038.47
2022-10-13T17:26:13.786Z,100040.06
2022-10-13T17:29:15.791Z,100042.97
2022-10-13T17:32:17.541Z,100034.53
2022-10-13T17:35:19.340Z,100038.78
2022-10-13T17:38:21.099Z,100035.88
2022-10-13T17:41:24.684Z,100037.63
2022-10-13T17:44:29.346Z,100033.31
2022-10-13T17:47:31.241Z,100034.88
2022-10-13T17:50:35.980Z,100043.94
2022-10-13T17:53:40.343Z,100044.97
2022-10-13T17:56:43.377Z,100043.00
2022-10-13T17:59:46.285Z,100049.34
2022-10-13T18:02:48.175Z,100047.66
2022-10-13T18:05:53.583Z,100045.41
2022-10-13T18:08:55.476Z,100055.44
2022-10-13T18:11:57.451Z,100057.25
2022-10-13T18:14:59.637Z,100055.72
2022-10-13T18:18:04.629Z,100057.16
2022-10-13T18:21:08.161Z,100062.09
2022-10-13T18:24:11.577Z,100053.78
2022-10-13T18:27:17.324Z,100056.88
2022-10-13T18:30:22.339Z,100050.69
2022-10-13T18:33:24.514Z,100054.66
2022-10-13T18:36:28.773Z,100062.81
2022-10-13T18:39:30.847Z,100052.09
2022-10-13T18:42:32.789Z,100055.34
2022-10-13T18:45:37.009Z,100051.81
2022-10-13T18:48:39.241Z,100064.06
2022-10-13T18:51:41.428Z,100058.44
2022-10-13T18:54:43.190Z,100053.09
2022-10-13T18:57:45.301Z,100069.00
2022-10-13T19:00:47.159Z,100068.00
2022-10-13T19:03:51.691Z,100060.81
2022-10-13T19:06:58.937Z,100066.47
2022-10-13T19:10:05.574Z,100060.25
2022-10-13T19:13:10.016Z,100061.97
2022-10-13T19:16:15.506Z,100065.34
2022-10-13T19:19:18.693Z,100072.38
2022-10-13T19:22:21.115Z,100060.41
2022-10-13T19:25:23.258Z,100063.91
2022-10-13T19:28:25.619Z,100073.50
2022-10-13T19:31:31.123Z,100061.94
2022-10-13T19:34:48.219Z,100058.41
2022-10-13T19:37:53.321Z,100070.81
2022-10-13T19:41:06.049Z,100062.78
2022-10-13T19:44:07.835Z,100069.28
2022-10-13T19:47:15.661Z,100063.34
2022-10-13T19:50:17.550Z,100069.13
2022-10-13T19:53:19.733Z,100064.78
2022-10-13T19:56:25.377Z,100072.66
2022-10-13T19:59:28.127Z,100070.00
2022-10-13T20:02:29.958Z,100066.47
2022-10-13T20:05:31.910Z,100065.47
2022-10-13T20:08:33.697Z,100066.31
2022-10-13T20:11:35.449Z,100071.53
2022-10-13T20:14:37.416Z,100071.38
2022-10-13T20:17:39.242Z,100072.22
2022-10-13T20:20:41.768Z,100068.72
2022-10-13T20:23:43.959Z,100067.03
2022-10-13T20:26:45.841Z,100072.53
2022-10-13T20:29:47.715Z,100061.41
2022-10-13T20:32:49.512Z,100063.22
2022-10-13T20:35:51.240Z,100063.09
2022-10-13T20:38:53.310Z,100065.91
2022-10-13T20:41:55.063Z,100066.75
2022-10-13T20:44:57.197Z,100072.38
2022-10-13T20:47:58.913Z,100069.56
2022-10-13T20:51:07.159Z,100065.06
2022-10-13T20:54:10.405Z,100076.59
2022-10-13T20:57:12.128Z,100067.88
2022-10-13T21:00:14.041Z,100075.06
2022-10-13T21:03:18.386Z,100076.34
2022-10-13T21:06:24.149Z,100069.00
2022-10-13T21:09:25.940Z,100062.66
2022-10-13T21:12:27.758Z,100067.19
2022-10-13T21:15:29.537Z,100063.66
2022-10-13T21:18:31.390Z,100072.66
2022-10-13T21:21:34.472Z,100072.81
2022-10-13T21:24:36.295Z,100067.59
2022-10-13T21:27:38.289Z,100065.06
2022-10-13T21:30:40.085Z,100067.03
2022-10-13T21:33:42.791Z,100060.84
2022-10-13T21:36:45.493Z,100067.19
2022-10-13T21:39:49.328Z,100069.03
2022-10-13T21:42:51.200Z,100064.66
2022-10-13T21:45:52.992Z,100070.84
2022-10-13T21:48:56.952Z,100071.28
2022-10-13T21:51:58.726Z,100069.59
2022-10-13T21:55:00.470Z,100071.41
2022-10-13T21:58:05.590Z,100075.91
2022-10-13T22:01:12.427Z,100066.22
2022-10-13T22:04:15.029Z,100074.94
2022-10-13T22:07:16.839Z,100074.78
2022-10-13T22:10:18.750Z,100071.00
2022-10-13T22:13:20.547Z,100077.31
2022-10-13T22:16:24.537Z,100077.31
2022-10-13T22:19:26.476Z,100080.00
2022-10-13T22:22:30.984Z,100077.19
2022-10-13T22:25:32.904Z,100081.69
2022-10-13T22:28:37.253Z,100084.66
2022-10-13T22:31:39.497Z,100084.50
2022-10-13T22:34:44.427Z,100086.19
2022-10-13T22:37:46.241Z,100076.63
2022-10-13T22:40:48.684Z,100083.66
2022-10-13T22:43:58.096Z,100083.94
2022-10-13T22:46:59.910Z,100088.31
2022-10-13T22:50:01.714Z,100083.94
2022-10-13T22:53:03.600Z,100079.72
2022-10-13T22:56:07.761Z,100085.91
2022-10-13T22:59:11.932Z,100087.88
2022-10-13T23:02:13.747Z,100087.88
2022-10-13T23:05:17.371Z,100083.81
2022-10-13T23:08:19.144Z,100081.97
2022-10-13T23:11:20.928Z,100086.47
2022-10-13T23:14:22.711Z,100085.50
2022-10-13T23:17:24.656Z,100086.34
2022-10-13T23:20:27.122Z,100096.91
2022-10-13T23:23:28.812Z,100083.66
2022-10-13T23:26:33.407Z,100088.16
2022-10-13T23:29:35.228Z,100089.00
2022-10-13T23:32:37.010Z,100083.66
2022-10-13T23:35:41.336Z,100090.72
2022-10-13T23:38:43.485Z,100083.66
2022-10-13T23:41:45.280Z,100084.50
2022-10-13T23:44:47.930Z,100086.47
2022-10-13T23:47:49.694Z,100087.47
2022-10-13T23:50:51.490Z,100088.16
2022-10-13T23:53:53.568Z,100087.47
2022-10-13T23:56:55.297Z,100080.44
2022-10-13T23:59:57.085Z,100090.16
